createdAt,value
2018-03-23T00:00:03.686Z,4.062
2018-03-23T00:01:03.910Z,4
2018-03-23T00:02:03.764Z,4
2018-03-23T00:03:03.452Z,4
2018-03-23T00:04:03.164Z,4.062
2018-03-23T00:05:04.053Z,4.062
2018-03-23T00:06:03.554Z,4
2018-03-23T00:07:03.278Z,4.062
2018-03-23T00:08:03.821Z,4
2018-03-23T00:09:03.602Z,3.937
2018-03-23T00:10:04.082Z,3.937
2018-03-23T00:11:03.433Z,3.937
2018-03-23T00:12:03.912Z,3.937
2018-03-23T00:13:03.477Z,3.937
2018-03-23T00:14:03.362Z,3.937
2018-03-23T00:15:04.095Z,3.937
2018-03-23T00:16:03.776Z,3.875
2018-03-23T00:17:03.542Z,3.875
2018-03-23T00:18:03.425Z,3.875
2018-03-23T00:19:03.855Z,3.875
2018-03-23T00:20:03.480Z,3.875
2018-03-23T00:21:03.325Z,3.875
2018-03-23T00:22:03.849Z,3.875
2018-03-23T00:23:03.395Z,3.875
2018-03-23T00:24:04.123Z,3.875
2018-03-23T00:25:03.691Z,3.875
2018-03-23T00:26:03.419Z,3.875
2018-03-23T00:27:03.115Z,3.875
2018-03-23T00:28:03.755Z,3.812
2018-03-23T00:29:03.391Z,3.812
2018-03-23T00:30:04.375Z,3.812
2018-03-23T00:31:03.928Z,3.812
2018-03-23T00:32:03.464Z,3.875
2018-03-23T00:33:03.233Z,3.875
2018-03-23T00:34:03.886Z,3.875
2018-03-23T00:35:03.566Z,3.937
2018-03-23T00:36:03.307Z,3.875
2018-03-23T00:37:03.904Z,3.875
2018-03-23T00:38:03.416Z,3.875
2018-03-23T00:39:04.212Z,3.812
2018-03-23T00:40:04.186Z,3.812
2018-03-23T00:41:03.709Z,3.812
2018-03-23T00:42:03.306Z,3.812
2018-03-23T00:43:03.868Z,3.812
2018-03-23T00:44:03.364Z,3.812
2018-03-23T00:45:03.954Z,3.812
2018-03-23T00:46:03.542Z,3.812
2018-03-23T00:47:03.179Z,3.812
2018-03-23T00:48:03.728Z,3.812
2018-03-23T00:49:03.589Z,3.812
2018-03-23T00:50:03.428Z,3.812
2018-03-23T00:51:03.948Z,3.75
2018-03-23T00:52:03.587Z,3.75
2018-03-23T00:53:03.163Z,3.687
2018-03-23T00:54:03.286Z,3.75
2018-03-23T00:55:03.805Z,3.75
2018-03-23T00:56:03.448Z,3.75
2018-03-23T00:57:04.014Z,3.687
2018-03-23T00:58:03.709Z,3.687
2018-03-23T00:59:03.403Z,3.687
2018-03-23T01:00:04.609Z,3.687
2018-03-23T01:01:03.911Z,3.687
2018-03-23T01:02:03.648Z,3.687
2018-03-23T01:03:03.330Z,3.625
2018-03-23T01:04:03.112Z,3.687
2018-03-23T01:05:03.732Z,3.625
2018-03-23T01:06:03.343Z,3.625
2018-03-23T01:07:03.957Z,3.625
2018-03-23T01:08:03.744Z,3.625
2018-03-23T01:09:03.568Z,3.625
2018-03-23T01:10:03.428Z,3.625
2018-03-23T01:11:03.859Z,3.625
2018-03-23T01:12:04.073Z,3.625
2018-03-23T01:13:03.647Z,3.625
2018-03-23T01:14:03.222Z,3.625
2018-03-23T01:15:03.926Z,3.562
2018-03-23T01:16:03.906Z,3.562
2018-03-23T01:17:03.693Z,3.625
2018-03-23T01:18:03.749Z,3.562
2018-03-23T01:19:03.692Z,3.625
2018-03-23T01:20:03.504Z,3.625
2018-03-23T01:21:03.104Z,3.562
2018-03-23T01:22:03.691Z,3.562
2018-03-23T01:23:03.580Z,3.562
2018-03-23T01:24:03.289Z,3.625
2018-03-23T01:25:03.836Z,3.562
2018-03-23T01:26:03.388Z,3.562
2018-03-23T01:27:04.177Z,3.562
2018-03-23T01:28:03.790Z,3.562
2018-03-23T01:29:03.409Z,3.562
2018-03-23T01:30:03.233Z,3.562
2018-03-23T01:31:04.273Z,3.562
2018-03-23T01:32:03.988Z,3.5
2018-03-23T01:33:03.839Z,3.562
2018-03-23T01:34:03.412Z,3.5
2018-03-23T01:35:03.365Z,3.5
2018-03-23T01:36:04.746Z,3.5
2018-03-23T01:37:04.037Z,3.437
2018-03-23T01:38:03.654Z,3.5
2018-03-23T01:39:03.776Z,3.437
2018-03-23T01:40:03.982Z,3.5
2018-03-23T01:41:03.914Z,3.5
2018-03-23T01:42:03.632Z,3.5
2018-03-23T01:43:03.485Z,3.437
2018-03-23T01:44:03.384Z,3.437
2018-03-23T01:45:04.152Z,3.5
2018-03-23T01:46:03.665Z,3.5
2018-03-23T01:47:03.334Z,3.437
2018-03-23T01:48:04.029Z,3.437
2018-03-23T01:49:03.702Z,3.437
2018-03-23T01:50:03.470Z,3.437
2018-03-23T01:51:03.186Z,3.375
2018-03-23T01:52:03.747Z,3.437
2018-03-23T01:53:03.667Z,3.437
2018-03-23T01:54:03.222Z,3.375
2018-03-23T01:55:03.758Z,3.437
2018-03-23T01:56:03.436Z,3.437
2018-03-23T01:57:04.039Z,3.437
2018-03-23T01:58:03.637Z,3.375
2018-03-23T01:59:03.307Z,3.375
2018-03-23T02:00:04.432Z,3.437
2018-03-23T02:01:03.457Z,3.375
2018-03-23T02:02:03.052Z,3.437
2018-03-23T02:03:03.644Z,3.375
2018-03-23T02:04:03.382Z,3.375
2018-03-23T02:05:03.998Z,3.375
2018-03-23T02:06:03.440Z,3.312
2018-03-23T02:07:03.943Z,3.312
2018-03-23T02:08:03.562Z,3.312
2018-03-23T02:09:03.202Z,3.25
2018-03-23T02:10:03.980Z,3.25
2018-03-23T02:11:03.417Z,3.25
2018-03-23T02:12:03.454Z,3.187
2018-03-23T02:13:03.250Z,3.125
2018-03-23T02:14:03.850Z,3.125
2018-03-23T02:15:03.716Z,3.125
2018-03-23T02:16:03.419Z,3.062
2018-03-23T02:17:04.170Z,3.062
2018-03-23T02:18:03.952Z,3.062
2018-03-23T02:19:03.573Z,3.062
2018-03-23T02:20:03.453Z,3
2018-03-23T02:21:04.021Z,3
2018-03-23T02:22:03.618Z,3
2018-03-23T02:23:03.260Z,3
2018-03-23T02:24:03.880Z,2.937
2018-03-23T02:25:03.528Z,2.937
2018-03-23T02:26:03.453Z,2.937
2018-03-23T02:27:04.133Z,2.875
2018-03-23T02:28:03.373Z,2.875
2018-03-23T02:29:04.039Z,2.875
2018-03-23T02:30:04.064Z,2.875
2018-03-23T02:31:03.834Z,2.812
2018-03-23T02:32:03.403Z,2.812
2018-03-23T02:33:03.291Z,2.812
2018-03-23T02:34:03.838Z,2.812
2018-03-23T02:35:03.973Z,2.812
2018-03-23T02:36:03.721Z,2.75
2018-03-23T02:37:03.315Z,2.75
2018-03-23T02:38:03.550Z,2.75
2018-03-23T02:39:03.599Z,2.75
2018-03-23T02:40:03.575Z,2.75
2018-03-23T02:41:03.944Z,2.75
2018-03-23T02:42:03.569Z,2.75
2018-03-23T02:43:03.164Z,2.75
2018-03-23T02:44:03.801Z,2.75
2018-03-23T02:45:03.357Z,2.812
2018-03-23T02:46:03.796Z,2.75
2018-03-23T02:47:03.862Z,2.812
2018-03-23T02:48:03.439Z,2.812
2018-03-23T02:49:03.046Z,2.75
2018-03-23T02:50:03.463Z,2.75
2018-03-23T02:51:03.967Z,2.75
2018-03-23T02:52:03.405Z,2.75
2018-03-23T02:53:03.958Z,2.75
2018-03-23T02:54:03.487Z,2.687
2018-03-23T02:55:04.025Z,2.687
2018-03-23T02:56:03.637Z,2.687
2018-03-23T02:57:03.711Z,2.687
2018-03-23T02:58:03.281Z,2.687
2018-03-23T02:59:03.729Z,2.687
2018-03-23T03:00:03.383Z,2.687
2018-03-23T03:01:03.479Z,2.687
2018-03-23T03:02:03.887Z,2.625
2018-03-23T03:03:03.748Z,2.687
2018-03-23T03:04:03.100Z,2.625
2018-03-23T03:05:03.701Z,2.625
2018-03-23T03:06:03.091Z,2.625
2018-03-23T03:07:03.646Z,2.625
2018-03-23T03:08:03.158Z,2.625
2018-03-23T03:09:03.761Z,2.625
2018-03-23T03:10:03.698Z,2.687
2018-03-23T03:11:03.312Z,2.625
2018-03-23T03:12:03.796Z,2.625
2018-03-23T03:13:03.435Z,2.625
2018-03-23T03:14:03.913Z,2.625
2018-03-23T03:15:03.222Z,2.625
2018-03-23T03:16:03.663Z,2.625
2018-03-23T03:17:03.282Z,2.625
2018-03-23T03:18:03.894Z,2.625
2018-03-23T03:19:03.413Z,2.625
2018-03-23T03:20:04.850Z,2.625
2018-03-23T03:21:03.306Z,2.687
2018-03-23T03:22:03.967Z,2.625
2018-03-23T03:23:03.420Z,2.687
2018-03-23T03:24:03.869Z,2.625
2018-03-23T03:25:03.519Z,2.687
2018-03-23T03:26:03.243Z,2.687
2018-03-23T03:27:03.865Z,2.625
2018-03-23T03:28:03.333Z,2.625
2018-03-23T03:29:03.750Z,2.625
2018-03-23T03:30:03.383Z,2.625
2018-03-23T03:31:03.939Z,2.625
2018-03-23T03:32:03.919Z,2.625
2018-03-23T03:33:03.247Z,2.687
2018-03-23T03:34:04.688Z,2.687
2018-03-23T03:35:03.668Z,2.687
2018-03-23T03:36:04.155Z,2.687
2018-03-23T03:37:03.735Z,2.687
2018-03-23T03:38:03.298Z,2.687
2018-03-23T03:39:03.891Z,2.687
2018-03-23T03:40:03.470Z,2.625
2018-03-23T03:41:03.981Z,2.625
2018-03-23T03:42:03.578Z,2.625
2018-03-23T03:43:03.217Z,2.625
2018-03-23T03:44:03.838Z,2.562
2018-03-23T03:45:04.255Z,2.562
2018-03-23T03:46:05.610Z,2.562
2018-03-23T03:47:03.730Z,2.562
2018-03-23T03:48:03.717Z,2.562
2018-03-23T03:49:03.468Z,2.562
2018-03-23T03:50:04.133Z,2.562
2018-03-23T03:51:03.694Z,2.562
2018-03-23T03:52:03.401Z,2.562
2018-03-23T03:53:03.927Z,2.562
2018-03-23T03:54:03.497Z,2.562
2018-03-23T03:55:03.951Z,2.5
2018-03-23T03:56:03.647Z,2.5
2018-03-23T03:57:03.250Z,2.562
2018-03-23T03:58:03.172Z,2.562
2018-03-23T03:59:03.728Z,2.562
2018-03-23T04:00:03.707Z,2.5
2018-03-23T04:01:03.622Z,2.562
2018-03-23T04:02:03.163Z,2.5
2018-03-23T04:03:03.895Z,2.562
2018-03-23T04:04:03.321Z,2.562
2018-03-23T04:05:03.995Z,2.562
2018-03-23T04:06:03.608Z,2.562
2018-03-23T04:07:03.091Z,2.562
2018-03-23T04:08:03.557Z,2.562
2018-03-23T04:09:03.376Z,2.562
2018-03-23T04:10:03.179Z,2.562
2018-03-23T04:11:04.144Z,2.562
2018-03-23T04:12:03.556Z,2.562
2018-03-23T04:13:03.104Z,2.562
2018-03-23T04:14:03.684Z,2.562
2018-03-23T04:15:03.439Z,2.5
2018-03-23T04:16:03.797Z,2.5
2018-03-23T04:17:03.425Z,2.562
2018-03-23T04:18:03.965Z,2.562
2018-03-23T04:19:04.725Z,2.562
2018-03-23T04:20:03.296Z,2.5
2018-03-23T04:21:03.749Z,2.5
2018-03-23T04:22:03.170Z,2.5
2018-03-23T04:23:03.641Z,2.562
2018-03-23T04:24:03.268Z,2.5
2018-03-23T04:25:03.907Z,2.5
2018-03-23T04:26:03.476Z,2.5
2018-03-23T04:27:03.047Z,2.5
2018-03-23T04:28:03.668Z,2.562
2018-03-23T04:29:03.283Z,2.562
2018-03-23T04:30:04.077Z,2.562
2018-03-23T04:31:03.569Z,2.562
2018-03-23T04:32:03.191Z,2.5
2018-03-23T04:33:03.827Z,2.5
2018-03-23T04:34:03.424Z,2.562
2018-03-23T04:35:04.451Z,2.562
2018-03-23T04:36:03.955Z,2.562
2018-03-23T04:37:03.543Z,2.5
2018-03-23T04:38:03.065Z,2.5
2018-03-23T04:39:03.659Z,2.5
2018-03-23T04:40:03.699Z,2.5
2018-03-23T04:41:03.584Z,2.5
2018-03-23T04:42:03.609Z,2.5
2018-03-23T04:43:03.251Z,2.5
2018-03-23T04:44:03.768Z,2.5
2018-03-23T04:45:03.707Z,2.5
2018-03-23T04:46:03.414Z,2.5
2018-03-23T04:47:04.837Z,2.5
2018-03-23T04:48:03.633Z,2.5
2018-03-23T04:49:03.986Z,2.5
2018-03-23T04:50:03.424Z,2.5
2018-03-23T04:51:05.042Z,2.5
2018-03-23T04:52:04.316Z,2.437
2018-03-23T04:53:03.737Z,2.437
2018-03-23T04:54:03.184Z,2.5
2018-03-23T04:55:03.753Z,2.5
2018-03-23T04:56:03.257Z,2.5
2018-03-23T04:57:03.812Z,2.5
2018-03-23T04:58:03.473Z,2.5
2018-03-23T04:59:03.184Z,2.5
2018-03-23T05:00:03.932Z,2.5
2018-03-23T05:01:03.533Z,2.5
2018-03-23T05:02:03.202Z,2.5
2018-03-23T05:03:04.122Z,2.5
2018-03-23T05:04:03.641Z,2.5
2018-03-23T05:05:03.493Z,2.5
2018-03-23T05:06:04.043Z,2.5
2018-03-23T05:07:03.538Z,2.5
2018-03-23T05:08:03.151Z,2.5
2018-03-23T05:09:03.683Z,2.5
2018-03-23T05:10:03.084Z,2.5
2018-03-23T05:11:03.608Z,2.437
2018-03-23T05:12:03.222Z,2.437
2018-03-23T05:13:03.752Z,2.437
2018-03-23T05:14:03.241Z,2.5
2018-03-23T05:15:04.136Z,2.5
2018-03-23T05:16:03.531Z,2.5
2018-03-23T05:17:04.093Z,2.437
2018-03-23T05:18:03.633Z,2.5
2018-03-23T05:19:03.260Z,2.5
2018-03-23T05:20:03.839Z,2.5
2018-03-23T05:21:03.624Z,2.5
2018-03-23T05:22:03.331Z,2.5
2018-03-23T05:23:04.899Z,2.5
2018-03-23T05:24:03.538Z,2.562
2018-03-23T05:25:03.733Z,2.562
2018-03-23T05:26:03.834Z,2.562
2018-03-23T05:27:03.514Z,2.562
2018-03-23T05:28:03.100Z,2.5
2018-03-23T05:29:03.830Z,2.562
2018-03-23T05:30:03.480Z,2.562
2018-03-23T05:31:03.174Z,2.562
2018-03-23T05:32:03.861Z,2.562
2018-03-23T05:33:03.370Z,2.562
2018-03-23T05:34:03.991Z,2.562
2018-03-23T05:35:03.678Z,2.562
2018-03-23T05:36:03.814Z,2.562
2018-03-23T05:37:03.435Z,2.562
2018-03-23T05:38:03.903Z,2.562
2018-03-23T05:39:03.732Z,2.562
2018-03-23T05:40:03.273Z,2.562
2018-03-23T05:41:03.812Z,2.562
2018-03-23T05:42:03.428Z,2.5
2018-03-23T05:43:03.982Z,2.562
2018-03-23T05:44:03.653Z,2.562
2018-03-23T05:45:03.831Z,2.562
2018-03-23T05:46:03.413Z,2.625
2018-03-23T05:47:03.897Z,2.625
2018-03-23T05:48:03.261Z,2.562
2018-03-23T05:49:03.739Z,2.625
2018-03-23T05:50:03.587Z,2.625
2018-03-23T05:51:03.203Z,2.687
2018-03-23T05:52:03.887Z,2.75
2018-03-23T05:53:03.380Z,2.812
2018-03-23T05:54:03.960Z,2.812
2018-03-23T05:55:04.460Z,2.812
2018-03-23T05:56:03.781Z,2.812
2018-03-23T05:57:03.574Z,2.812
2018-03-23T05:58:04.030Z,2.812
2018-03-23T05:59:03.495Z,2.812
2018-03-23T06:00:04.637Z,2.875
2018-03-23T06:01:03.169Z,2.875
2018-03-23T06:02:03.362Z,2.937
2018-03-23T06:03:03.918Z,2.937
2018-03-23T06:04:03.405Z,2.875
2018-03-23T06:05:03.304Z,2.875
2018-03-23T06:06:03.813Z,2.937
2018-03-23T06:07:03.374Z,2.937
2018-03-23T06:08:03.966Z,3
2018-03-23T06:09:03.496Z,3.062
2018-03-23T06:10:04.027Z,3.062
2018-03-23T06:11:03.614Z,3.125
2018-03-23T06:12:03.127Z,3.125
2018-03-23T06:13:03.461Z,3.125
2018-03-23T06:14:03.240Z,3.125
2018-03-23T06:15:03.861Z,3.062
2018-03-23T06:16:03.474Z,3.062
2018-03-23T06:17:03.286Z,3.062
2018-03-23T06:18:03.996Z,3.062
2018-03-23T06:19:03.718Z,3.062
2018-03-23T06:20:03.117Z,3.062
2018-03-23T06:21:03.598Z,3.062
2018-03-23T06:22:03.088Z,3.125
2018-03-23T06:23:03.659Z,3.125
2018-03-23T06:24:04.112Z,3.187
2018-03-23T06:25:03.698Z,3.187
2018-03-23T06:26:03.378Z,3.312
2018-03-23T06:27:03.847Z,3.25
2018-03-23T06:28:03.325Z,3.25
2018-03-23T06:29:03.947Z,3.25
2018-03-23T06:30:03.500Z,3.125
2018-03-23T06:31:03.303Z,3.187
2018-03-23T06:32:04.004Z,3.187
2018-03-23T06:33:03.649Z,3.187
2018-03-23T06:34:03.275Z,3.25
2018-03-23T06:35:03.781Z,3.25
2018-03-23T06:36:03.297Z,3.312
2018-03-23T06:37:03.878Z,3.312
2018-03-23T06:38:03.374Z,3.375
2018-03-23T06:39:04.073Z,3.437
2018-03-23T06:40:03.783Z,3.5
2018-03-23T06:41:03.426Z,3.625
2018-03-23T06:42:03.955Z,3.687
2018-03-23T06:43:03.575Z,3.687
2018-03-23T06:44:08.157Z,3.75
2018-03-23T06:45:03.918Z,3.75
2018-03-23T06:46:03.478Z,3.875
2018-03-23T06:47:03.930Z,3.812
2018-03-23T06:48:03.477Z,3.875
2018-03-23T06:49:03.953Z,3.812
2018-03-23T06:50:03.489Z,3.75
2018-03-23T06:51:03.030Z,3.687
2018-03-23T06:52:03.463Z,3.625
2018-03-23T06:53:03.105Z,3.562
2018-03-23T06:54:03.625Z,3.5
2018-03-23T06:55:03.587Z,3.5
2018-03-23T06:56:03.101Z,3.5
2018-03-23T06:57:03.610Z,3.687
2018-03-23T06:58:03.312Z,3.687
2018-03-23T06:59:03.750Z,3.625
2018-03-23T07:00:03.668Z,3.625
2018-03-23T07:01:03.487Z,3.687
2018-03-23T07:02:03.114Z,3.687
2018-03-23T07:03:03.510Z,3.75
2018-03-23T07:04:04.086Z,3.75
2018-03-23T07:05:03.634Z,3.75
2018-03-23T07:06:03.510Z,3.687
2018-03-23T07:07:03.856Z,3.5
2018-03-23T07:08:03.359Z,3.5
2018-03-23T07:09:03.948Z,3.437
2018-03-23T07:10:03.677Z,3.5
2018-03-23T07:11:03.379Z,3.437
2018-03-23T07:12:03.418Z,3.437
2018-03-23T07:13:03.878Z,3.5
2018-03-23T07:14:03.284Z,3.437
2018-03-23T07:15:03.938Z,3.437
2018-03-23T07:16:03.376Z,3.375
2018-03-23T07:17:03.994Z,3.437
2018-03-23T07:18:03.532Z,3.5
2018-03-23T07:19:03.186Z,3.562
2018-03-23T07:20:03.823Z,3.562
2018-03-23T07:21:03.592Z,3.625
2018-03-23T07:22:03.219Z,3.5
2018-03-23T07:23:03.783Z,3.562
2018-03-23T07:24:03.361Z,3.562
2018-03-23T07:25:03.800Z,3.625
2018-03-23T07:26:03.377Z,3.562
2018-03-23T07:27:04.015Z,3.625
2018-03-23T07:28:03.644Z,3.625
2018-03-23T07:29:04.264Z,3.625
2018-03-23T07:30:03.794Z,3.687
2018-03-23T07:31:03.223Z,3.75
2018-03-23T07:32:03.718Z,3.812
2018-03-23T07:33:03.214Z,3.812
2018-03-23T07:34:03.606Z,3.937
2018-03-23T07:35:03.161Z,4
2018-03-23T07:36:03.608Z,4.062
2018-03-23T07:37:03.304Z,4.062
2018-03-23T07:38:03.823Z,4.125
2018-03-23T07:39:04.668Z,4.187
2018-03-23T07:40:03.239Z,4.125
2018-03-23T07:41:03.264Z,4.062
2018-03-23T07:42:03.805Z,4.062
2018-03-23T07:43:03.427Z,4.062
2018-03-23T07:44:03.881Z,4.125
2018-03-23T07:45:03.391Z,4.187
2018-03-23T07:46:04.011Z,4.312
2018-03-23T07:47:03.491Z,4.312
2018-03-23T07:48:03.936Z,4.437
2018-03-23T07:49:03.406Z,4.437
2018-03-23T07:50:03.875Z,4.375
2018-03-23T07:51:03.544Z,4.437
2018-03-23T07:52:03.230Z,4.437
2018-03-23T07:53:03.156Z,4.437
2018-03-23T07:54:03.788Z,4.5
2018-03-23T07:55:03.363Z,4.375
2018-03-23T07:56:03.839Z,4.312
2018-03-23T07:57:03.953Z,4.312
2018-03-23T07:58:03.660Z,4.25
2018-03-23T07:59:03.095Z,4.187
2018-03-23T08:00:03.825Z,4.187
2018-03-23T08:01:03.432Z,4.187
2018-03-23T08:02:03.137Z,4.312
2018-03-23T08:03:03.583Z,4.375
2018-03-23T08:04:03.230Z,4.375
2018-03-23T08:05:03.820Z,4.375
2018-03-23T08:06:03.154Z,4.437
2018-03-23T08:07:03.739Z,4.437
2018-03-23T08:08:03.252Z,4.437
2018-03-23T08:09:03.889Z,4.5
2018-03-23T08:10:03.551Z,4.5
2018-03-23T08:11:03.057Z,4.562
2018-03-23T08:12:03.587Z,4.625
2018-03-23T08:13:03.098Z,4.625
2018-03-23T08:14:03.647Z,4.687
2018-03-23T08:15:03.325Z,4.687
2018-03-23T08:16:03.316Z,4.75
2018-03-23T08:17:03.990Z,4.812
2018-03-23T08:18:03.676Z,4.812
2018-03-23T08:19:03.303Z,4.75
2018-03-23T08:20:04.056Z,4.812
2018-03-23T08:21:03.860Z,4.875
2018-03-23T08:22:03.496Z,4.812
2018-03-23T08:23:03.133Z,4.812
2018-03-23T08:24:03.661Z,4.687
2018-03-23T08:25:03.196Z,4.75
2018-03-23T08:26:03.761Z,4.812
2018-03-23T08:27:03.472Z,4.875
2018-03-23T08:28:04.042Z,4.812
2018-03-23T08:29:03.873Z,4.812
2018-03-23T08:30:03.620Z,4.812
2018-03-23T08:31:03.969Z,4.875
2018-03-23T08:32:03.587Z,4.812
2018-03-23T08:33:03.224Z,4.812
2018-03-23T08:34:03.884Z,4.875
2018-03-23T08:35:03.578Z,4.937
2018-03-23T08:36:03.283Z,5
2018-03-23T08:37:03.880Z,5.062
2018-03-23T08:38:03.410Z,5.062
2018-03-23T08:39:04.602Z,5
2018-03-23T08:40:03.337Z,4.937
2018-03-23T08:41:03.702Z,4.937
2018-03-23T08:42:03.288Z,4.937
2018-03-23T08:43:03.834Z,4.937
2018-03-23T08:44:03.428Z,5
2018-03-23T08:45:04.022Z,5
2018-03-23T08:46:03.673Z,5
2018-03-23T08:47:03.180Z,5.062
2018-03-23T08:48:03.975Z,5.062
2018-03-23T08:49:03.431Z,5.062
2018-03-23T08:50:03.993Z,5.062
2018-03-23T08:51:03.648Z,5.062
2018-03-23T08:52:03.306Z,5.187
2018-03-23T08:53:03.260Z,5.25
2018-03-23T08:54:03.849Z,5.312
2018-03-23T08:55:03.821Z,5.375
2018-03-23T08:56:03.446Z,5.375
2018-03-23T08:57:04.004Z,5.437
2018-03-23T08:58:03.556Z,5.375
2018-03-23T08:59:03.306Z,5.375
2018-03-23T09:00:04.081Z,5.375
2018-03-23T09:01:03.199Z,5.5
2018-03-23T09:02:03.361Z,5.562
2018-03-23T09:03:03.352Z,5.5
2018-03-23T09:04:03.755Z,5.437
2018-03-23T09:05:03.602Z,5.312
2018-03-23T09:06:04.246Z,5.312
2018-03-23T09:07:03.727Z,5.25
2018-03-23T09:08:03.146Z,5.187
2018-03-23T09:09:03.675Z,5.187
2018-03-23T09:10:03.117Z,5.125
2018-03-23T09:11:03.847Z,4.875
2018-03-23T09:12:03.460Z,4.75
2018-03-23T09:13:03.977Z,4.562
2018-03-23T09:14:03.559Z,4.562
2018-03-23T09:15:03.124Z,4.625
2018-03-23T09:16:03.726Z,4.625
2018-03-23T09:17:03.479Z,4.5
2018-03-23T09:18:03.127Z,4.562
2018-03-23T09:19:03.625Z,4.687
2018-03-23T09:20:03.438Z,4.875
2018-03-23T09:21:03.126Z,5
2018-03-23T09:22:03.598Z,4.875
2018-03-23T09:23:03.331Z,4.937
2018-03-23T09:24:03.762Z,5
2018-03-23T09:25:03.409Z,5.062
2018-03-23T09:26:03.961Z,5.062
2018-03-23T09:27:03.445Z,5.125
2018-03-23T09:28:03.930Z,5.062
2018-03-23T09:29:03.432Z,5.062
2018-03-23T09:30:04.036Z,5.125
2018-03-23T09:31:04.029Z,5.187
2018-03-23T09:32:03.677Z,5.25
2018-03-23T09:33:03.159Z,5.375
2018-03-23T09:34:03.551Z,5.437
2018-03-23T09:35:03.115Z,5.5
2018-03-23T09:36:03.711Z,5.437
2018-03-23T09:37:03.635Z,5.562
2018-03-23T09:38:03.234Z,5.625
2018-03-23T09:39:03.721Z,5.75
2018-03-23T09:40:03.549Z,5.75
2018-03-23T09:41:03.852Z,5.812
2018-03-23T09:42:03.382Z,6.062
2018-03-23T09:43:04.000Z,6.312
2018-03-23T09:44:03.615Z,6.375
2018-03-23T09:45:03.401Z,6.375
2018-03-23T09:46:03.902Z,6.375
2018-03-23T09:47:03.459Z,6.437
2018-03-23T09:48:03.919Z,6.5
2018-03-23T09:49:03.383Z,6.562
2018-03-23T09:50:03.989Z,6.437
2018-03-23T09:51:03.671Z,6.562
2018-03-23T09:52:03.389Z,6.625
2018-03-23T09:53:03.979Z,6.75
2018-03-23T09:54:03.569Z,6.625
2018-03-23T09:55:03.360Z,6.625
2018-03-23T09:56:03.924Z,6.562
2018-03-23T09:57:03.496Z,6.562
2018-03-23T09:58:03.958Z,6.625
2018-03-23T09:59:03.384Z,6.687
2018-03-23T10:00:03.966Z,6.687
2018-03-23T10:01:03.528Z,6.875
2018-03-23T10:02:04.031Z,6.937
2018-03-23T10:03:03.619Z,7
2018-03-23T10:04:03.578Z,7.062
2018-03-23T10:05:03.502Z,7.062
2018-03-23T10:06:04.346Z,7
2018-03-23T10:07:03.746Z,6.937
2018-03-23T10:08:03.353Z,6.937
2018-03-23T10:09:04.739Z,6.875
2018-03-23T10:10:03.421Z,6.812
2018-03-23T10:11:04.022Z,6.75
2018-03-23T10:12:03.540Z,6.875
2018-03-23T10:13:03.171Z,6.937
2018-03-23T10:14:03.675Z,6.75
2018-03-23T10:15:03.613Z,6.687
2018-03-23T10:16:03.951Z,6.687
2018-03-23T10:17:03.546Z,6.562
2018-03-23T10:18:03.328Z,6.687
2018-03-23T10:19:03.694Z,6.812
2018-03-23T10:20:03.533Z,6.75
2018-03-23T10:21:04.043Z,6.687
2018-03-23T10:22:03.666Z,6.625
2018-03-23T10:23:03.204Z,6.625
2018-03-23T10:24:03.795Z,6.625
2018-03-23T10:25:03.459Z,6.562
2018-03-23T10:26:03.961Z,6.75
2018-03-23T10:27:03.601Z,6.937
2018-03-23T10:28:03.287Z,6.937
2018-03-23T10:29:03.703Z,6.625
2018-03-23T10:30:03.564Z,6.5
2018-03-23T10:31:03.185Z,6.5
2018-03-23T10:32:03.751Z,6.562
2018-03-23T10:33:03.371Z,6.625
2018-03-23T10:34:03.952Z,6.687
2018-03-23T10:35:03.672Z,6.562
2018-03-23T10:36:03.270Z,6.5
2018-03-23T10:37:03.793Z,6.437
2018-03-23T10:38:03.566Z,6.437
2018-03-23T10:39:04.051Z,6.25
2018-03-23T10:40:03.641Z,6.375
2018-03-23T10:41:03.534Z,6.312
2018-03-23T10:42:03.059Z,6.187
2018-03-23T10:43:03.653Z,6.187
2018-03-23T10:44:03.211Z,6.187
2018-03-23T10:45:03.719Z,6.062
2018-03-23T10:46:03.339Z,6.125
2018-03-23T10:47:03.534Z,6
2018-03-23T10:48:03.971Z,6
2018-03-23T10:49:03.534Z,6.062
2018-03-23T10:50:03.163Z,6.187
2018-03-23T10:51:03.776Z,6.187
2018-03-23T10:52:03.186Z,6.187
2018-03-23T10:53:03.692Z,6.187
2018-03-23T10:54:03.353Z,6.125
2018-03-23T10:55:03.849Z,6.187
2018-03-23T10:56:03.324Z,6.187
2018-03-23T10:57:03.826Z,6.312
2018-03-23T16:41:03.588Z,4.062
2018-03-23T16:42:03.154Z,4.062
2018-03-23T16:43:03.682Z,4.062
2018-03-23T16:44:03.251Z,4.062
2018-03-23T16:45:04.797Z,4.062
2018-03-23T16:46:03.335Z,4.062
2018-03-23T16:47:04.018Z,4
2018-03-23T16:48:03.692Z,4
2018-03-23T16:49:03.446Z,3.937
2018-03-23T16:50:04.166Z,3.875
2018-03-23T16:51:03.985Z,3.875
2018-03-23T16:52:03.657Z,3.812
2018-03-23T16:53:35.669Z,3.812
2018-03-23T16:54:03.462Z,3.812
2018-03-23T16:55:03.865Z,3.812
2018-03-23T16:56:03.522Z,3.812
2018-03-23T16:57:03.160Z,3.812
2018-03-23T16:58:04.080Z,3.75
2018-03-23T16:59:35.740Z,3.812
2018-03-23T17:00:03.519Z,3.75
2018-03-23T17:08:03.225Z,3.562
2018-03-23T17:09:03.968Z,3.5
2018-03-23T17:10:03.815Z,3.5
2018-03-23T17:11:03.511Z,3.5
2018-03-23T17:12:03.283Z,3.437
2018-03-23T17:13:03.828Z,3.437
2018-03-23T17:14:04.412Z,3.437
2018-03-23T17:15:04.747Z,3.375
2018-03-23T17:16:03.318Z,3.375
2018-03-23T17:17:04.060Z,3.375
2018-03-23T17:18:04.045Z,3.312
2018-03-23T17:19:03.477Z,3.312
2018-03-23T17:20:03.193Z,3.312
2018-03-23T17:21:03.741Z,3.312
2018-03-23T17:22:03.218Z,3.312
2018-03-23T17:23:03.889Z,3.312
2018-03-23T17:24:03.526Z,3.25
2018-03-23T17:25:03.257Z,3.25
2018-03-23T17:26:03.843Z,3.187
2018-03-23T17:27:03.488Z,3.187
2018-03-23T17:28:03.159Z,3.187
2018-03-23T17:29:03.737Z,3.187
2018-03-23T17:30:03.334Z,3.187
2018-03-23T17:31:03.919Z,3.187
2018-03-23T17:32:03.585Z,3.187
2018-03-23T17:33:03.777Z,3.125
2018-03-23T17:34:03.580Z,3.125
2018-03-23T17:35:03.438Z,3.125
2018-03-23T17:36:04.157Z,3.125
2018-03-23T17:37:03.758Z,3.062
2018-03-23T17:38:03.332Z,3.062
2018-03-23T17:39:04.049Z,3.125
2018-03-23T17:40:03.612Z,3.062
2018-03-23T17:41:03.193Z,3.062
2018-03-23T17:42:03.745Z,3.062
2018-03-23T17:43:03.393Z,3.062
2018-03-23T17:44:03.478Z,3.062
2018-03-23T17:45:04.054Z,3
2018-03-23T17:46:03.705Z,3
2018-03-23T17:47:03.283Z,3
2018-03-23T17:48:03.802Z,3
2018-03-23T17:49:03.456Z,3
2018-03-23T17:50:04.043Z,3
2018-03-23T17:51:03.663Z,3
2018-03-23T17:52:03.608Z,2.937
2018-03-23T17:53:03.271Z,2.937
2018-03-23T17:54:03.774Z,2.937
2018-03-23T17:55:03.491Z,2.937
2018-03-23T17:56:03.083Z,2.937
2018-03-23T17:57:03.784Z,2.937
2018-03-23T17:58:03.373Z,2.875
2018-03-23T17:59:03.866Z,2.875
2018-03-23T18:00:03.887Z,2.875
2018-03-23T18:01:03.676Z,2.875
2018-03-23T18:02:03.330Z,2.875
2018-03-23T18:03:03.824Z,2.875
2018-03-23T18:04:03.551Z,2.875
2018-03-23T18:05:03.664Z,2.875
2018-03-23T18:06:03.047Z,2.812
2018-03-23T18:07:03.708Z,2.812
2018-03-23T18:08:03.315Z,2.812
2018-03-23T18:09:04.044Z,2.875
2018-03-23T18:10:03.765Z,2.812
2018-03-23T18:11:03.365Z,2.875
2018-03-23T18:12:04.016Z,2.812
2018-03-23T18:13:03.663Z,2.812
2018-03-23T18:14:03.483Z,2.875
2018-03-23T18:15:03.502Z,2.812
2018-03-23T18:16:03.197Z,2.812
2018-03-23T18:17:03.961Z,2.875
2018-03-23T18:18:03.622Z,2.812
2018-03-23T18:19:03.245Z,2.812
2018-03-23T18:20:03.948Z,2.812
2018-03-23T18:21:03.975Z,2.812
2018-03-23T18:22:03.680Z,2.812
2018-03-23T18:23:03.315Z,2.812
2018-03-23T18:24:03.953Z,2.812
2018-03-23T18:25:03.624Z,2.75
2018-03-23T18:26:03.231Z,2.75
2018-03-23T18:27:03.916Z,2.75
2018-03-23T18:28:03.660Z,2.75
2018-03-23T18:29:03.275Z,2.75
2018-03-23T18:30:04.290Z,2.75
2018-03-23T18:31:03.936Z,2.75
2018-03-23T18:32:03.656Z,2.75
2018-03-23T18:33:03.249Z,2.75
2018-03-23T18:34:03.841Z,2.75
2018-03-23T18:35:03.531Z,2.75
2018-03-23T18:36:03.135Z,2.75
2018-03-23T18:37:03.803Z,2.75
2018-03-23T18:38:03.491Z,2.75
2018-03-23T18:39:03.463Z,2.75
2018-03-23T18:40:03.734Z,2.75
2018-03-23T18:41:03.765Z,2.75
2018-03-23T18:42:03.756Z,2.75
2018-03-23T18:43:03.391Z,2.75
2018-03-23T18:44:03.340Z,2.75
2018-03-23T18:45:03.993Z,2.75
2018-03-23T18:46:03.631Z,2.75
2018-03-23T18:47:03.722Z,2.687
2018-03-23T18:48:03.410Z,2.75
2018-03-23T18:49:03.963Z,2.75
2018-03-23T18:50:03.652Z,2.75
2018-03-23T18:51:03.256Z,2.75
2018-03-23T18:52:03.991Z,2.75
2018-03-23T18:53:03.289Z,2.75
2018-03-23T18:54:03.808Z,2.75
2018-03-23T18:55:04.254Z,2.75